sensor_id;sensor_type;location;lat;lon;timestamp;pressure;altitude;pressure_sealevel;temperature;humidity
28588;BME280;15787;49.662;10.162;2023-02-19T00:01:24;99529.72;;;9.54;100.00
28588;BME280;15787;49.662;10.162;2023-02-19T00:03:59;99531.06;;;9.43;100.00
28588;BME280;15787;49.662;10.162;2023-02-19T00:06:34;99523.81;;;9.49;100.00
28588;BME280;15787;49.662;10.162;2023-02-19T00:09:08;99524.75;;;9.32;100.00
28588;BME280;15787;49.662;10.162;2023-02-19T00:11:42;99507.81;;;9.12;100.00
28588;BME280;15787;49.662;10.162;2023-02-19T00:14:17;99500.72;;;9.04;100.00
28588;BME280;15787;49.662;10.162;2023-02-19T00:16:51;99502.19;;;9.16;100.00
28588;BME280;15787;49.662;10.162;2023-02-19T00:19:24;99496.38;;;9.00;100.00
28588;BME280;15787;49.662;10.162;2023-02-19T00:21:56;99487.28;;;8.92;100.00
28588;BME280;15787;49.662;10.162;2023-02-19T00:24:29;99492.56;;;8.72;100.00
28588;BME280;15787;49.662;10.162;2023-02-19T00:27:02;99484.13;;;8.86;100.00
28588;BME280;15787;49.662;10.162;2023-02-19T00:29:36;99476.66;;;8.73;100.00
28588;BME280;15787;49.662;10.162;2023-02-19T00:32:09;99477.47;;;8.77;100.00
28588;BME280;15787;49.662;10.162;2023-02-19T00:34:43;99469.88;;;8.77;100.00
28588;BME280;15787;49.662;10.162;2023-02-19T00:37:16;99458.72;;;8.77;100.00
28588;BME280;15787;49.662;10.162;2023-02-19T00:39:49;99447.22;;;8.75;100.00
28588;BME280;15787;49.662;10.162;2023-02-19T00:42:21;99446.69;;;8.91;100.00
28588;BME280;15787;49.662;10.162;2023-02-19T00:44:57;99443.63;;;8.75;100.00
28588;BME280;15787;49.662;10.162;2023-02-19T00:47:30;99448.81;;;8.76;100.00
28588;BME280;15787;49.662;10.162;2023-02-19T00:50:03;99446.47;;;8.71;100.00
28588;BME280;15787;49.662;10.162;2023-02-19T00:52:36;99436.06;;;8.79;100.00
28588;BME280;15787;49.662;10.162;2023-02-19T00:55:09;99440.41;;;8.80;100.00
28588;BME280;15787;49.662;10.162;2023-02-19T00:57:42;99443.25;;;8.76;100.00
28588;BME280;15787;49.662;10.162;2023-02-19T01:00:16;99437.69;;;8.73;100.00
28588;BME280;15787;49.662;10.162;2023-02-19T01:02:49;99449.19;;;8.78;100.00
28588;BME280;15787;49.662;10.162;2023-02-19T01:05:22;99453.28;;;8.60;100.00
28588;BME280;15787;49.662;10.162;2023-02-19T01:07:55;99437.34;;;8.67;100.00
28588;BME280;15787;49.662;10.162;2023-02-19T01:10:28;99438.94;;;8.65;100.00
28588;BME280;15787;49.662;10.162;2023-02-19T01:13:01;99433.34;;;8.68;100.00
28588;BME280;15787;49.662;10.162;2023-02-19T01:15:35;99424.63;;;8.66;100.00
28588;BME280;15787;49.662;10.162;2023-02-19T01:18:09;99407.50;;;8.68;100.00
28588;BME280;15787;49.662;10.162;2023-02-19T01:20:43;99411.50;;;8.67;100.00
28588;BME280;15787;49.662;10.162;2023-02-19T01:23:16;99389.28;;;8.60;100.00
28588;BME280;15787;49.662;10.162;2023-02-19T01:25:49;99388.84;;;8.65;100.00
28588;BME280;15787;49.662;10.162;2023-02-19T01:28:22;99395.34;;;8.48;100.00
28588;BME280;15787;49.662;10.162;2023-02-19T01:30:59;99395.25;;;8.58;100.00
28588;BME280;15787;49.662;10.162;2023-02-19T01:33:33;99390.44;;;8.62;100.00
28588;BME280;15787;49.662;10.162;2023-02-19T01:36:07;99391.66;;;8.61;100.00
28588;BME280;15787;49.662;10.162;2023-02-19T01:38:43;99385.31;;;8.57;100.00
28588;BME280;15787;49.662;10.162;2023-02-19T01:41:18;99396.06;;;8.55;100.00
28588;BME280;15787;49.662;10.162;2023-02-19T01:43:56;99396.09;;;8.52;100.00
28588;BME280;15787;49.662;10.162;2023-02-19T01:46:43;99405.59;;;8.58;100.00
28588;BME280;15787;49.662;10.162;2023-02-19T01:49:22;99418.69;;;8.64;100.00
28588;BME280;15787;49.662;10.162;2023-02-19T01:51:59;99397.59;;;8.63;100.00
28588;BME280;15787;49.662;10.162;2023-02-19T01:54:35;99394.44;;;8.61;100.00
28588;BME280;15787;49.662;10.162;2023-02-19T01:57:14;99381.66;;;8.67;100.00
28588;BME280;15787;49.662;10.162;2023-02-19T01:59:51;99383.69;;;8.60;100.00
28588;BME280;15787;49.662;10.162;2023-02-19T02:02:28;99366.53;;;8.68;100.00
28588;BME280;15787;49.662;10.162;2023-02-19T02:05:03;99362.59;;;8.66;100.00
28588;BME280;15787;49.662;10.162;2023-02-19T02:07:40;99370.06;;;8.72;100.00
28588;BME280;15787;49.662;10.162;2023-02-19T02:10:30;99378.84;;;8.74;100.00
28588;BME280;15787;49.662;10.162;2023-02-19T02:13:03;99376.81;;;8.75;100.00
28588;BME280;15787;49.662;10.162;2023-02-19T02:15:42;99372.78;;;8.83;100.00
28588;BME280;15787;49.662;10.162;2023-02-19T02:18:27;99362.88;;;8.78;100.00
28588;BME280;15787;49.662;10.162;2023-02-19T02:21:10;99362.50;;;8.76;100.00
28588;BME280;15787;49.662;10.162;2023-02-19T02:24:10;99367.25;;;8.79;100.00
28588;BME280;15787;49.662;10.162;2023-02-19T02:26:57;99352.97;;;8.74;100.00
28588;BME280;15787;49.662;10.162;2023-02-19T02:30:07;99357.31;;;8.78;100.00
28588;BME280;15787;49.662;10.162;2023-02-19T02:32:44;99358.84;;;8.83;100.00
28588;BME280;15787;49.662;10.162;2023-02-19T02:35:28;99349.81;;;8.72;100.00
28588;BME280;15787;49.662;10.162;2023-02-19T02:38:06;99356.56;;;8.71;100.00
28588;BME280;15787;49.662;10.162;2023-02-19T02:40:42;99354.59;;;8.71;100.00
28588;BME280;15787;49.662;10.162;2023-02-19T02:43:17;99356.88;;;8.80;100.00
28588;BME280;15787;49.662;10.162;2023-02-19T02:45:51;99356.16;;;8.72;100.00
28588;BME280;15787;49.662;10.162;2023-02-19T02:48:34;99355.34;;;8.75;100.00
28588;BME280;15787;49.662;10.162;2023-02-19T02:51:15;99354.53;;;8.75;100.00
28588;BME280;15787;49.662;10.162;2023-02-19T02:54:12;99358.09;;;8.79;100.00
28588;BME280;15787;49.662;10.162;2023-02-19T02:57:09;99357.72;;;8.77;100.00
28588;BME280;15787;49.662;10.162;2023-02-19T02:59:55;99354.94;;;8.77;100.00
28588;BME280;15787;49.662;10.162;2023-02-19T03:02:30;99350.50;;;8.83;100.00
28588;BME280;15787;49.662;10.162;2023-02-19T03:05:09;99342.94;;;8.83;100.00
28588;BME280;15787;49.662;10.162;2023-02-19T03:08:06;99345.00;;;8.76;100.00
28588;BME280;15787;49.662;10.162;2023-02-19T03:10:45;99333.88;;;8.72;100.00
28588;BME280;15787;49.662;10.162;2023-02-19T03:13:25;99338.69;;;8.72;100.00
28588;BME280;15787;49.662;10.162;2023-02-19T03:16:22;99330.34;;;8.72;100.00
28588;BME280;15787;49.662;10.162;2023-02-19T03:19:16;99336.28;;;8.74;100.00
28588;BME280;15787;49.662;10.162;2023-02-19T03:21:58;99333.06;;;8.75;100.00
28588;BME280;15787;49.662;10.162;2023-02-19T03:24:33;99334.72;;;8.69;100.00
28588;BME280;15787;49.662;10.162;2023-02-19T03:27:27;99334.28;;;8.74;100.00
28588;BME280;15787;49.662;10.162;2023-02-19T03:30:04;99338.63;;;8.75;100.00
28588;BME280;15787;49.662;10.162;2023-02-19T03:32:43;99335.06;;;8.75;100.00
28588;BME280;15787;49.662;10.162;2023-02-19T03:35:21;99329.53;;;8.71;100.00
28588;BME280;15787;49.662;10.162;2023-02-19T03:38:01;99317.91;;;8.80;100.00
28588;BME280;15787;49.662;10.162;2023-02-19T03:40:42;99325.88;;;8.78;100.00
28588;BME280;15787;49.662;10.162;2023-02-19T03:43:20;99330.28;;;8.75;100.00
28588;BME280;15787;49.662;10.162;2023-02-19T03:45:57;99326.31;;;8.76;100.00
28588;BME280;15787;49.662;10.162;2023-02-19T03:48:37;99315.97;;;8.77;100.00
28588;BME280;15787;49.662;10.162;2023-02-19T03:51:26;99313.09;;;8.84;100.00
28588;BME280;15787;49.662;10.162;2023-02-19T03:54:09;99308.78;;;8.79;100.00
28588;BME280;15787;49.662;10.162;2023-02-19T03:56:49;99324.53;;;8.93;100.00
28588;BME280;15787;49.662;10.162;2023-02-19T03:59:29;99312.31;;;8.83;100.00
28588;BME280;15787;49.662;10.162;2023-02-19T04:02:05;99313.50;;;8.82;100.00
28588;BME280;15787;49.662;10.162;2023-02-19T04:04:42;99308.72;;;8.83;100.00
28588;BME280;15787;49.662;10.162;2023-02-19T04:07:19;99306.72;;;8.87;100.00
28588;BME280;15787;49.662;10.162;2023-02-19T04:09:53;99323.38;;;8.90;100.00
28588;BME280;15787;49.662;10.162;2023-02-19T04:12:28;99316.25;;;8.86;100.00
28588;BME280;15787;49.662;10.162;2023-02-19T04:15:05;99314.22;;;8.90;100.00
28588;BME280;15787;49.662;10.162;2023-02-19T04:17:44;99323.78;;;8.89;100.00
28588;BME280;15787;49.662;10.162;2023-02-19T04:20:20;99308.28;;;8.88;100.00
28588;BME280;15787;49.662;10.162;2023-02-19T04:22:55;99317.84;;;8.87;100.00
28588;BME280;15787;49.662;10.162;2023-02-19T04:25:29;99324.19;;;8.87;100.00
28588;BME280;15787;49.662;10.162;2023-02-19T04:28:03;99326.16;;;8.90;100.00
28588;BME280;15787;49.662;10.162;2023-02-19T04:30:36;99340.91;;;8.87;100.00
28588;BME280;15787;49.662;10.162;2023-02-19T04:33:09;99342.94;;;8.83;100.00
28588;BME280;15787;49.662;10.162;2023-02-19T04:35:42;99347.69;;;8.86;100.00
28588;BME280;15787;49.662;10.162;2023-02-19T04:38:16;99347.31;;;8.84;100.00
28588;BME280;15787;49.662;10.162;2023-02-19T04:40:50;99344.84;;;8.90;100.00
28588;BME280;15787;49.662;10.162;2023-02-19T04:43:22;99344.47;;;8.92;100.00
28588;BME280;15787;49.662;10.162;2023-02-19T04:45:58;99345.28;;;8.88;100.00
28588;BME280;15787;49.662;10.162;2023-02-19T04:48:31;99345.63;;;8.94;100.00
28588;BME280;15787;49.662;10.162;2023-02-19T04:51:05;99339.59;;;8.99;100.00
28588;BME280;15787;49.662;10.162;2023-02-19T04:53:39;99358.31;;;8.99;100.00
28588;BME280;15787;49.662;10.162;2023-02-19T04:56:15;99345.44;;;9.12;100.00
28588;BME280;15787;49.662;10.162;2023-02-19T04:58:48;99346.69;;;9.07;100.00
28588;BME280;15787;49.662;10.162;2023-02-19T05:01:22;99347.28;;;9.25;100.00
28588;BME280;15787;49.662;10.162;2023-02-19T05:03:55;99354.97;;;9.14;100.00
28588;BME280;15787;49.662;10.162;2023-02-19T05:06:28;99362.94;;;9.12;100.00
28588;BME280;15787;49.662;10.162;2023-02-19T05:09:02;99355.69;;;9.22;100.00
28588;BME280;15787;49.662;10.162;2023-02-19T05:11:35;99361.72;;;9.13;100.00
28588;BME280;15787;49.662;10.162;2023-02-19T05:14:08;99365.75;;;9.09;100.00
28588;BME280;15787;49.662;10.162;2023-02-19T05:16:41;99353.44;;;9.10;100.00
28588;BME280;15787;49.662;10.162;2023-02-19T05:19:14;99366.50;;;9.13;100.00
28588;BME280;15787;49.662;10.162;2023-02-19T05:21:48;99367.00;;;9.04;100.00
28588;BME280;15787;49.662;10.162;2023-02-19T05:24:22;99369.72;;;9.11;100.00
28588;BME280;15787;49.662;10.162;2023-02-19T05:26:55;99373.66;;;9.17;100.00
28588;BME280;15787;49.662;10.162;2023-02-19T05:29:29;99368.91;;;9.11;100.00
28588;BME280;15787;49.662;10.162;2023-02-19T05:32:02;99378.06;;;9.11;100.00
28588;BME280;15787;49.662;10.162;2023-02-19T05:34:35;99375.63;;;9.17;100.00
28588;BME280;15787;49.662;10.162;2023-02-19T05:37:08;99373.66;;;9.17;100.00
28588;BME280;15787;49.662;10.162;2023-02-19T05:39:42;99369.28;;;9.13;100.00
28588;BME280;15787;49.662;10.162;2023-02-19T05:42:15;99386.41;;;9.15;100.00
28588;BME280;15787;49.662;10.162;2023-02-19T05:44:48;99374.50;;;9.11;100.00
28588;BME280;15787;49.662;10.162;2023-02-19T05:47:21;99390.81;;;9.12;100.00
28588;BME280;15787;49.662;10.162;2023-02-19T05:49:54;99389.13;;;9.22;100.00
28588;BME280;15787;49.662;10.162;2023-02-19T05:52:27;99385.59;;;9.18;100.00
28588;BME280;15787;49.662;10.162;2023-02-19T05:55:01;99379.13;;;9.24;100.00
28588;BME280;15787;49.662;10.162;2023-02-19T05:57:38;99381.34;;;9.03;100.00
28588;BME280;15787;49.662;10.162;2023-02-19T06:00:16;99383.28;;;9.06;100.00
28588;BME280;15787;49.662;10.162;2023-02-19T06:02:49;99385.28;;;9.05;100.00
28588;BME280;15787;49.662;10.162;2023-02-19T06:05:22;99387.78;;;8.96;100.00
28588;BME280;15787;49.662;10.162;2023-02-19T06:07:55;99381.78;;;8.98;100.00
28588;BME280;15787;49.662;10.162;2023-02-19T06:10:30;99383.38;;;8.99;100.00
28588;BME280;15787;49.662;10.162;2023-02-19T06:13:03;99392.59;;;8.92;100.00
28588;BME280;15787;49.662;10.162;2023-02-19T06:15:36;99396.22;;;8.85;100.00
28588;BME280;15787;49.662;10.162;2023-02-19T06:18:09;99404.13;;;8.90;100.00
28588;BME280;15787;49.662;10.162;2023-02-19T06:20:42;99401.41;;;8.83;100.00
28588;BME280;15787;49.662;10.162;2023-02-19T06:23:18;99397.47;;;8.77;100.00
28588;BME280;15787;49.662;10.162;2023-02-19T06:25:52;99403.09;;;8.74;100.00
28588;BME280;15787;49.662;10.162;2023-02-19T06:28:25;99413.06;;;8.71;100.00
28588;BME280;15787;49.662;10.162;2023-02-19T06:30:59;99396.72;;;8.73;100.00
28588;BME280;15787;49.662;10.162;2023-02-19T06:33:32;99415.41;;;8.73;100.00
28588;BME280;15787;49.662;10.162;2023-02-19T06:36:09;99411.44;;;8.74;100.00
28588;BME280;15787;49.662;10.162;2023-02-19T06:38:42;99411.47;;;8.70;100.00
28588;BME280;15787;49.662;10.162;2023-02-19T06:41:17;99411.81;;;8.76;100.00
28588;BME280;15787;49.662;10.162;2023-02-19T06:43:50;99429.25;;;8.83;100.00
28588;BME280;15787;49.662;10.162;2023-02-19T06:46:23;99419.00;;;8.73;100.00
28588;BME280;15787;49.662;10.162;2023-02-19T06:48:56;99425.81;;;8.69;100.00
28588;BME280;15787;49.662;10.162;2023-02-19T06:51:29;99423.78;;;8.73;100.00
28588;BME280;15787;49.662;10.162;2023-02-19T06:54:03;99436.50;;;8.70;100.00
28588;BME280;15787;49.662;10.162;2023-02-19T06:56:38;99445.66;;;8.71;100.00
28588;BME280;15787;49.662;10.162;2023-02-19T06:59:13;99442.88;;;8.71;100.00
28588;BME280;15787;49.662;10.162;2023-02-19T07:01:48;99443.63;;;8.75;100.00
28588;BME280;15787;49.662;10.162;2023-02-19T07:04:21;99451.97;;;8.78;100.00
28588;BME280;15787;49.662;10.162;2023-02-19T07:06:53;99449.19;;;8.75;100.00
28588;BME280;15787;49.662;10.162;2023-02-19T07:09:26;99460.38;;;8.71;100.00
28588;BME280;15787;49.662;10.162;2023-02-19T07:12:01;99464.34;;;8.70;100.00
28588;BME280;15787;49.662;10.162;2023-02-19T07:14:33;99466.72;;;8.75;100.00
28588;BME280;15787;49.662;10.162;2023-02-19T07:17:06;99472.63;;;8.84;100.00
28588;BME280;15787;49.662;10.162;2023-02-19T07:19:39;99475.03;;;8.79;100.00
28588;BME280;15787;49.662;10.162;2023-02-19T07:22:12;99484.44;;;8.99;100.00
28588;BME280;15787;49.662;10.162;2023-02-19T07:24:44;99481.00;;;8.77;100.00
28588;BME280;15787;49.662;10.162;2023-02-19T07:27:19;99484.16;;;8.83;100.00
28588;BME280;15787;49.662;10.162;2023-02-19T07:29:52;99486.94;;;8.83;100.00
28588;BME280;15787;49.662;10.162;2023-02-19T07:32:25;99484.44;;;8.99;100.00
28588;BME280;15787;49.662;10.162;2023-02-19T07:34:58;99483.78;;;8.81;100.00
28588;BME280;15787;49.662;10.162;2023-02-19T07:37:31;99492.88;;;8.88;100.00
28588;BME280;15787;49.662;10.162;2023-02-19T07:40:05;99497.19;;;8.97;100.00
28588;BME280;15787;49.662;10.162;2023-02-19T07:42:39;99512.75;;;8.90;100.00
28588;BME280;15787;49.662;10.162;2023-02-19T07:45:12;99504.81;;;8.89;100.00
28588;BME280;15787;49.662;10.162;2023-02-19T07:47:45;99504.31;;;8.98;100.00
28588;BME280;15787;49.662;10.162;2023-02-19T07:50:19;99507.56;;;8.93;100.00
28588;BME280;15787;49.662;10.162;2023-02-19T07:52:52;99517.44;;;9.01;100.00
28588;BME280;15787;49.662;10.162;2023-02-19T07:55:25;99519.03;;;9.02;100.00
28588;BME280;15787;49.662;10.162;2023-02-19T07:57:59;99528.53;;;9.08;100.00
28588;BME280;15787;49.662;10.162;2023-02-19T08:00:32;99532.91;;;9.09;100.00
28588;BME280;15787;49.662;10.162;2023-02-19T08:03:05;99534.13;;;9.04;100.00
28588;BME280;15787;49.662;10.162;2023-02-19T08:05:39;99536.84;;;9.15;100.00
28588;BME280;15787;49.662;10.162;2023-02-19T08:08:14;99522.94;;;9.08;100.00
28588;BME280;15787;49.662;10.162;2023-02-19T08:10:48;99526.97;;;9.07;100.00
28588;BME280;15787;49.662;10.162;2023-02-19T08:13:40;99525.66;;;9.22;100.00
28588;BME280;15787;49.662;10.162;2023-02-19T08:16:14;99535.69;;;9.09;100.00
28588;BME280;15787;49.662;10.162;2023-02-19T08:19:00;99530.84;;;9.20;100.00
28588;BME280;15787;49.662;10.162;2023-02-19T08:21:33;99541.22;;;9.16;100.00
28588;BME280;15787;49.662;10.162;2023-02-19T08:24:07;99551.16;;;9.17;100.00
28588;BME280;15787;49.662;10.162;2023-02-19T08:26:40;99558.31;;;9.18;100.00
28588;BME280;15787;49.662;10.162;2023-02-19T08:29:15;99559.13;;;9.15;100.00
28588;BME280;15787;49.662;10.162;2023-02-19T08:31:48;99552.63;;;9.32;100.00
28588;BME280;15787;49.662;10.162;2023-02-19T08:34:21;99558.66;;;9.23;100.00
28588;BME280;15787;49.662;10.162;2023-02-19T08:36:54;99565.00;;;9.27;100.00
28588;BME280;15787;49.662;10.162;2023-02-19T08:39:27;99561.00;;;9.28;100.00
28588;BME280;15787;49.662;10.162;2023-02-19T08:42:00;99567.00;;;9.30;100.00
28588;BME280;15787;49.662;10.162;2023-02-19T08:44:34;99557.69;;;9.47;100.00
28588;BME280;15787;49.662;10.162;2023-02-19T08:47:07;99563.22;;;9.51;100.00
28588;BME280;15787;49.662;10.162;2023-02-19T08:49:40;99569.13;;;9.57;100.00
28588;BME280;15787;49.662;10.162;2023-02-19T08:52:13;99583.44;;;9.62;100.00
28588;BME280;15787;49.662;10.162;2023-02-19T08:54:46;99570.66;;;9.65;100.00
28588;BME280;15787;49.662;10.162;2023-02-19T08:57:19;99583.00;;;9.67;100.00
28588;BME280;15787;49.662;10.162;2023-02-19T08:59:53;99584.25;;;9.59;100.00
28588;BME280;15787;49.662;10.162;2023-02-19T09:02:26;99598.13;;;9.66;100.00
28588;BME280;15787;49.662;10.162;2023-02-19T09:05:00;99590.25;;;9.58;100.00
28588;BME280;15787;49.662;10.162;2023-02-19T09:07:33;99595.47;;;9.52;100.00
28588;BME280;15787;49.662;10.162;2023-02-19T09:10:07;99612.94;;;9.60;100.00
28588;BME280;15787;49.662;10.162;2023-02-19T09:12:40;99612.50;;;9.65;100.00
28588;BME280;15787;49.662;10.162;2023-02-19T09:15:14;99617.25;;;9.68;100.00
28588;BME280;15787;49.662;10.162;2023-02-19T09:17:50;99620.25;;;9.87;100.00
28588;BME280;15787;49.662;10.162;2023-02-19T09:20:23;99629.78;;;9.90;100.00
28588;BME280;15787;49.662;10.162;2023-02-19T09:22:56;99633.00;;;9.88;100.00
28588;BME280;15787;49.662;10.162;2023-02-19T09:25:29;99634.56;;;9.89;100.00
28588;BME280;15787;49.662;10.162;2023-02-19T09:28:03;99629.78;;;9.90;100.00
28588;BME280;15787;49.662;10.162;2023-02-19T09:30:39;99625.66;;;10.05;100.00
28588;BME280;15787;49.662;10.162;2023-02-19T09:33:12;99636.06;;;10.01;100.00
28588;BME280;15787;49.662;10.162;2023-02-19T09:35:44;99645.19;;;10.05;100.00
28588;BME280;15787;49.662;10.162;2023-02-19T09:38:17;99637.63;;;10.02;100.00
28588;BME280;15787;49.662;10.162;2023-02-19T09:40:50;99638.09;;;9.97;100.00
28588;BME280;15787;49.662;10.162;2023-02-19T09:43:28;99640.38;;;10.09;100.00
28588;BME280;15787;49.662;10.162;2023-02-19T09:46:07;99639.00;;;10.28;100.00
28588;BME280;15787;49.662;10.162;2023-02-19T09:48:41;99633.06;;;10.26;100.00
28588;BME280;15787;49.662;10.162;2023-02-19T09:51:15;99632.00;;;10.50;100.00
28588;BME280;15787;49.662;10.162;2023-02-19T09:53:49;99647.84;;;10.23;100.00
28588;BME280;15787;49.662;10.162;2023-02-19T09:56:24;99651.44;;;10.23;100.00
28588;BME280;15787;49.662;10.162;2023-02-19T09:58:58;99658.19;;;10.26;100.00
28588;BME280;15787;49.662;10.162;2023-02-19T10:01:36;99655.38;;;10.26;100.00
28588;BME280;15787;49.662;10.162;2023-02-19T10:04:11;99661.84;;;10.19;100.00
28588;BME280;15787;49.662;10.162;2023-02-19T10:06:44;99669.66;;;10.35;100.00
28588;BME280;15787;49.662;10.162;2023-02-19T10:09:22;99665.28;;;10.34;100.00
28588;BME280;15787;49.662;10.162;2023-02-19T10:11:57;99670.78;;;10.41;100.00
28588;BME280;15787;49.662;10.162;2023-02-19T10:14:35;99671.31;;;10.29;100.00
28588;BME280;15787;49.662;10.162;2023-02-19T10:17:19;99659.16;;;10.05;100.00
28588;BME280;15787;49.662;10.162;2023-02-19T10:19:54;99664.03;;;9.94;100.00
28588;BME280;15787;49.662;10.162;2023-02-19T10:22:29;99665.00;;;9.73;100.00
28588;BME280;15787;49.662;10.162;2023-02-19T10:25:03;99671.34;;;9.77;100.00
28588;BME280;15787;49.662;10.162;2023-02-19T10:27:36;99688.59;;;9.62;100.00
28588;BME280;15787;49.662;10.162;2023-02-19T10:30:16;99695.25;;;9.78;100.00
28588;BME280;15787;49.662;10.162;2023-02-19T10:33:00;99687.03;;;9.61;100.00
28588;BME280;15787;49.662;10.162;2023-02-19T10:35:35;99695.03;;;9.51;100.00
28588;BME280;15787;49.662;10.162;2023-02-19T10:38:15;99691.06;;;9.52;100.00
28588;BME280;15787;49.662;10.162;2023-02-19T10:40:51;99691.00;;;9.60;100.00
28588;BME280;15787;49.662;10.162;2023-02-19T10:43:30;99689.84;;;9.53;100.00
28588;BME280;15787;49.662;10.162;2023-02-19T10:46:06;99691.06;;;9.49;100.00
28588;BME280;15787;49.662;10.162;2023-02-19T10:48:45;99694.59;;;9.57;100.00
28588;BME280;15787;49.662;10.162;2023-02-19T10:51:18;99695.41;;;9.57;100.00
28588;BME280;15787;49.662;10.162;2023-02-19T10:54:06;99691.78;;;9.60;100.00
28588;BME280;15787;49.662;10.162;2023-02-19T10:56:53;99701.66;;;9.75;100.00
28588;BME280;15787;49.662;10.162;2023-02-19T10:59:29;99698.28;;;9.94;100.00
28588;BME280;15787;49.662;10.162;2023-02-19T11:02:15;99704.22;;;10.00;100.00
28588;BME280;15787;49.662;10.162;2023-02-19T11:05:10;99702.16;;;10.11;100.00
28588;BME280;15787;49.662;10.162;2023-02-19T11:07:49;99702.31;;;9.90;100.00
28588;BME280;15787;49.662;10.162;2023-02-19T11:10:29;99714.72;;;9.85;100.00
28588;BME280;15787;49.662;10.162;2023-02-19T11:13:05;99711.50;;;9.90;100.00
28588;BME280;15787;49.662;10.162;2023-02-19T11:15:39;99707.75;;;10.07;100.00
28588;BME280;15787;49.662;10.162;2023-02-19T11:18:20;99704.59;;;10.02;100.00
28588;BME280;15787;49.662;10.162;2023-02-19T11:20:57;99705.09;;;9.93;100.00
28588;BME280;15787;49.662;10.162;2023-02-19T11:23:33;99731.00;;;9.90;100.00
28588;BME280;15787;49.662;10.162;2023-02-19T11:26:16;99724.56;;;10.00;100.00
28588;BME280;15787;49.662;10.162;2023-02-19T11:28:54;99717.38;;;10.03;100.00
28588;BME280;15787;49.662;10.162;2023-02-19T11:31:29;99724.47;;;10.14;100.00
28588;BME280;15787;49.662;10.162;2023-02-19T11:34:26;99726.06;;;10.15;100.00
28588;BME280;15787;49.662;10.162;2023-02-19T11:37:10;99733.13;;;10.27;100.00
28588;BME280;15787;49.662;10.162;2023-02-19T11:39:46;99733.09;;;10.31;97.22
28588;BME280;15787;49.662;10.162;2023-02-19T11:42:36;99736.25;;;10.33;96.36
28588;BME280;15787;49.662;10.162;2023-02-19T11:45:16;99733.53;;;10.29;97.28
28588;BME280;15787;49.662;10.162;2023-02-19T11:48:03;99737.53;;;10.25;99.94
28588;BME280;15787;49.662;10.162;2023-02-19T11:50:47;99739.13;;;10.22;100.00
28588;BME280;15787;49.662;10.162;2023-02-19T11:53:26;99746.81;;;10.07;100.00
28588;BME280;15787;49.662;10.162;2023-02-19T11:56:09;99741.19;;;10.14;100.00
28588;BME280;15787;49.662;10.162;2023-02-19T11:58:58;99742.78;;;10.15;97.36
28588;BME280;15787;49.662;10.162;2023-02-19T12:01:55;99754.34;;;10.18;94.60
28588;BME280;15787;49.662;10.162;2023-02-19T12:04:56;99751.88;;;10.27;93.97
28588;BME280;15787;49.662;10.162;2023-02-19T12:10:41;99756.22;;;10.35;93.06
28588;BME280;15787;49.662;10.162;2023-02-19T12:13:23;99785.34;;;10.30;92.99
28588;BME280;15787;49.662;10.162;2023-02-19T12:16:10;99782.69;;;10.12;94.55
28588;BME280;15787;49.662;10.162;2023-02-19T12:19:21;99773.22;;;9.96;97.57
28588;BME280;15787;49.662;10.162;2023-02-19T12:22:05;99752.16;;;9.84;99.81
28588;BME280;15787;49.662;10.162;2023-02-19T12:25:19;99754.22;;;9.77;100.00
28588;BME280;15787;49.662;10.162;2023-02-19T12:28:09;99751.41;;;9.80;100.00
28588;BME280;15787;49.662;10.162;2023-02-19T12:31:08;99768.16;;;9.80;100.00
28588;BME280;15787;49.662;10.162;2023-02-19T12:33:57;99771.69;;;9.84;99.97
28588;BME280;15787;49.662;10.162;2023-02-19T12:36:36;99759.75;;;9.84;99.65
28588;BME280;15787;49.662;10.162;2023-02-19T12:39:21;99761.72;;;9.87;100.00
28588;BME280;15787;49.662;10.162;2023-02-19T12:42:04;99767.34;;;9.83;99.38
28588;BME280;15787;49.662;10.162;2023-02-19T12:44:46;99767.78;;;9.78;99.90
28588;BME280;15787;49.662;10.162;2023-02-19T12:47:23;99768.97;;;9.74;100.00
28588;BME280;15787;49.662;10.162;2023-02-19T12:50:04;99767.47;;;9.59;100.00
28588;BME280;15787;49.662;10.162;2023-02-19T12:52:47;99775.13;;;9.44;100.00
28588;BME280;15787;49.662;10.162;2023-02-19T12:55:25;99774.75;;;9.38;100.00
28588;BME280;15787;49.662;10.162;2023-02-19T12:58:02;99766.38;;;9.38;100.00
28588;BME280;15787;49.662;10.162;2023-02-19T13:00:41;99777.47;;;9.49;100.00
28588;BME280;15787;49.662;10.162;2023-02-19T13:03:20;99761.50;;;9.57;100.00
28588;BME280;15787;49.662;10.162;2023-02-19T13:05:57;99750.34;;;9.60;100.00
28588;BME280;15787;49.662;10.162;2023-02-19T13:08:37;99779.47;;;9.56;100.00
28588;BME280;15787;49.662;10.162;2023-02-19T13:11:22;99771.09;;;9.48;100.00
28588;BME280;15787;49.662;10.162;2023-02-19T13:13:59;99761.50;;;9.60;100.00
28588;BME280;15787;49.662;10.162;2023-02-19T13:16:39;99759.41;;;9.78;100.00
28588;BME280;15787;49.662;10.162;2023-02-19T13:19:13;99755.47;;;9.69;100.00
28588;BME280;15787;49.662;10.162;2023-02-19T13:21:51;99743.91;;;9.67;100.00
28588;BME280;15787;49.662;10.162;2023-02-19T13:24:46;99750.25;;;9.74;100.00
28588;BME280;15787;49.662;10.162;2023-02-19T13:27:34;99743.84;;;9.81;100.00
28588;BME280;15787;49.662;10.162;2023-02-19T13:30:30;99736.72;;;9.73;100.00
28588;BME280;15787;49.662;10.162;2023-02-19T13:33:20;99740.63;;;9.82;100.00
28588;BME280;15787;49.662;10.162;2023-02-19T13:36:10;99752.22;;;9.77;100.00
28588;BME280;15787;49.662;10.162;2023-02-19T13:38:45;99747.38;;;9.88;99.71
28588;BME280;15787;49.662;10.162;2023-02-19T13:41:27;99749.44;;;9.77;98.70
28588;BME280;15787;49.662;10.162;2023-02-19T13:44:02;99759.34;;;9.82;98.15
28588;BME280;15787;49.662;10.162;2023-02-19T13:46:37;99762.94;;;9.86;98.62